sensor_id;sensor_type;location;lat;lon;timestamp;pressure;altitude;pressure_sealevel;temperature;humidity
41078;BME280;26823;42.662;23.352;2023-04-29T00:01:08;94830.25;;;6.46;64.88
41078;BME280;26823;42.662;23.352;2023-04-29T00:03:34;94837.59;;;6.56;67.04
41078;BME280;26823;42.662;23.352;2023-04-29T00:06:00;94818.59;;;6.35;66.93
41078;BME280;26823;42.662;23.352;2023-04-29T00:08:25;94832.88;;;6.41;67.72
41078;BME280;26823;42.662;23.352;2023-04-29T00:10:51;94837.28;;;6.52;67.34
41078;BME280;26823;42.662;23.352;2023-04-29T00:13:17;94831.50;;;6.38;66.35
41078;BME280;26823;42.662;23.352;2023-04-29T00:15:42;94827.25;;;6.42;66.08
41078;BME280;26823;42.662;23.352;2023-04-29T00:18:08;94837.75;;;6.44;66.21
41078;BME280;26823;42.662;23.352;2023-04-29T00:20:34;94849.63;;;6.48;65.65
41078;BME280;26823;42.662;23.352;2023-04-29T00:23:00;94841.94;;;6.34;64.89
41078;BME280;26823;42.662;23.352;2023-04-29T00:25:26;94835.84;;;6.17;65.89
41078;BME280;26823;42.662;23.352;2023-04-29T00:27:51;94844.50;;;6.46;65.71
41078;BME280;26823;42.662;23.352;2023-04-29T00:30:16;94793.28;;;6.09;64.72
41078;BME280;26823;42.662;23.352;2023-04-29T00:32:42;94858.94;;;6.40;62.92
41078;BME280;26823;42.662;23.352;2023-04-29T00:35:09;94856.19;;;6.35;64.52
41078;BME280;26823;42.662;23.352;2023-04-29T00:37:34;94858.69;;;6.19;65.74
41078;BME280;26823;42.662;23.352;2023-04-29T00:40:00;94841.38;;;6.10;65.40
41078;BME280;26823;42.662;23.352;2023-04-29T00:42:26;94852.44;;;6.14;65.50
41078;BME280;26823;42.662;23.352;2023-04-29T00:44:52;94846.28;;;6.13;65.18
41078;BME280;26823;42.662;23.352;2023-04-29T00:47:17;94842.13;;;6.28;66.13
41078;BME280;26823;42.662;23.352;2023-04-29T00:49:43;94833.19;;;6.00;64.88
41078;BME280;26823;42.662;23.352;2023-04-29T00:52:10;94842.94;;;6.06;65.98
41078;BME280;26823;42.662;23.352;2023-04-29T00:54:36;94842.97;;;5.89;67.06
41078;BME280;26823;42.662;23.352;2023-04-29T00:57:03;94831.16;;;5.68;67.25
41078;BME280;26823;42.662;23.352;2023-04-29T00:59:30;94824.06;;;5.62;67.79
41078;BME280;26823;42.662;23.352;2023-04-29T01:02:02;94816.81;;;5.62;66.92
41078;BME280;26823;42.662;23.352;2023-04-29T01:04:31;94818.13;;;5.77;66.36
41078;BME280;26823;42.662;23.352;2023-04-29T01:10:12;94815.69;;;5.58;67.97
41078;BME280;26823;42.662;23.352;2023-04-29T01:12:45;94811.56;;;5.50;68.18
41078;BME280;26823;42.662;23.352;2023-04-29T01:15:34;94821.78;;;5.53;67.91
41078;BME280;26823;42.662;23.352;2023-04-29T01:18:19;94808.03;;;5.45;68.53
41078;BME280;26823;42.662;23.352;2023-04-29T01:20:47;94803.97;;;5.64;68.65
41078;BME280;26823;42.662;23.352;2023-04-29T01:23:13;94804.63;;;5.32;70.65
41078;BME280;26823;42.662;23.352;2023-04-29T01:25:38;94806.78;;;5.52;70.60
41078;BME280;26823;42.662;23.352;2023-04-29T01:31:16;94808.94;;;5.33;72.25
41078;BME280;26823;42.662;23.352;2023-04-29T01:41:42;94809.56;;;5.23;72.02
41078;BME280;26823;42.662;23.352;2023-04-29T01:44:17;94796.81;;;5.31;73.13
41078;BME280;26823;42.662;23.352;2023-04-29T01:46:48;94795.13;;;5.25;73.68
41078;BME280;26823;42.662;23.352;2023-04-29T01:49:14;94762.53;;;5.16;73.88
41078;BME280;26823;42.662;23.352;2023-04-29T01:51:40;94795.66;;;5.27;74.31
41078;BME280;26823;42.662;23.352;2023-04-29T01:54:05;94769.59;;;5.22;74.35
41078;BME280;26823;42.662;23.352;2023-04-29T01:56:31;94794.38;;;5.12;74.87
41078;BME280;26823;42.662;23.352;2023-04-29T01:58:56;94786.91;;;4.97;75.58
41078;BME280;26823;42.662;23.352;2023-04-29T02:01:21;94788.53;;;5.15;75.11
41078;BME280;26823;42.662;23.352;2023-04-29T02:03:47;94800.56;;;4.96;76.75
41078;BME280;26823;42.662;23.352;2023-04-29T02:06:12;94797.47;;;4.87;77.21
41078;BME280;26823;42.662;23.352;2023-04-29T02:08:38;94779.44;;;4.82;77.46
41078;BME280;26823;42.662;23.352;2023-04-29T02:11:03;94791.22;;;4.98;77.82
41078;BME280;26823;42.662;23.352;2023-04-29T02:13:29;94798.44;;;4.98;77.55
41078;BME280;26823;42.662;23.352;2023-04-29T02:15:54;94803.91;;;5.03;77.01
41078;BME280;26823;42.662;23.352;2023-04-29T02:18:20;94804.94;;;5.02;76.98
41078;BME280;26823;42.662;23.352;2023-04-29T02:20:45;94813.81;;;4.85;77.43
41078;BME280;26823;42.662;23.352;2023-04-29T02:23:10;94806.22;;;4.82;78.76
41078;BME280;26823;42.662;23.352;2023-04-29T02:25:36;94807.84;;;4.83;78.84
41078;BME280;26823;42.662;23.352;2023-04-29T02:28:01;94808.50;;;4.73;78.93
41078;BME280;26823;42.662;23.352;2023-04-29T02:30:27;94801.56;;;4.61;78.28
41078;BME280;26823;42.662;23.352;2023-04-29T02:32:52;94802.78;;;4.70;78.45
41078;BME280;26823;42.662;23.352;2023-04-29T02:35:18;94803.63;;;4.70;77.61
41078;BME280;26823;42.662;23.352;2023-04-29T02:37:44;94806.97;;;4.78;77.67
41078;BME280;26823;42.662;23.352;2023-04-29T02:40:09;94807.50;;;4.63;78.55
41078;BME280;26823;42.662;23.352;2023-04-29T02:42:35;94795.53;;;4.53;78.97
41078;BME280;26823;42.662;23.352;2023-04-29T02:45:01;94801.31;;;4.62;78.62
41078;BME280;26823;42.662;23.352;2023-04-29T02:47:26;94803.59;;;4.53;79.33
41078;BME280;26823;42.662;23.352;2023-04-29T02:49:52;94804.09;;;4.67;79.21
41078;BME280;26823;42.662;23.352;2023-04-29T02:52:17;94792.75;;;4.77;78.92
41078;BME280;26823;42.662;23.352;2023-04-29T02:54:43;94772.03;;;4.55;79.85
41078;BME280;26823;42.662;23.352;2023-04-29T02:57:08;94797.94;;;4.67;79.02
41078;BME280;26823;42.662;23.352;2023-04-29T02:59:34;94808.47;;;4.56;79.68
41078;BME280;26823;42.662;23.352;2023-04-29T03:02:00;94824.06;;;4.60;80.13
41078;BME280;26823;42.662;23.352;2023-04-29T03:04:26;94839.56;;;4.57;80.35
41078;BME280;26823;42.662;23.352;2023-04-29T03:06:54;94832.25;;;4.53;80.90
41078;BME280;26823;42.662;23.352;2023-04-29T03:09:20;94824.09;;;4.77;80.17
41078;BME280;26823;42.662;23.352;2023-04-29T03:11:46;94818.00;;;4.81;79.03
41078;BME280;26823;42.662;23.352;2023-04-29T03:14:11;94817.19;;;4.64;79.80
41078;BME280;26823;42.662;23.352;2023-04-29T03:16:36;94826.09;;;4.52;79.77
41078;BME280;26823;42.662;23.352;2023-04-29T03:19:02;94794.56;;;4.14;80.51
41078;BME280;26823;42.662;23.352;2023-04-29T03:21:28;94817.13;;;4.18;81.53
41078;BME280;26823;42.662;23.352;2023-04-29T03:23:54;94831.19;;;4.25;81.34
41078;BME280;26823;42.662;23.352;2023-04-29T03:26:19;94830.16;;;4.26;81.78
41078;BME280;26823;42.662;23.352;2023-04-29T03:28:46;94828.66;;;4.18;82.22
41078;BME280;26823;42.662;23.352;2023-04-29T03:31:12;94838.28;;;4.31;81.88
41078;BME280;26823;42.662;23.352;2023-04-29T03:33:40;94847.84;;;4.27;81.98
41078;BME280;26823;42.662;23.352;2023-04-29T03:36:05;94853.81;;;4.17;82.15
41078;BME280;26823;42.662;23.352;2023-04-29T03:38:33;94847.75;;;4.10;82.17
41078;BME280;26823;42.662;23.352;2023-04-29T03:41:01;94845.31;;;4.08;82.41
41078;BME280;26823;42.662;23.352;2023-04-29T03:43:26;94859.50;;;4.21;81.58
41078;BME280;26823;42.662;23.352;2023-04-29T03:45:52;94871.63;;;4.52;82.19
41078;BME280;26823;42.662;23.352;2023-04-29T03:48:18;94867.50;;;4.62;80.81
41078;BME280;26823;42.662;23.352;2023-04-29T03:50:44;94861.53;;;4.71;81.16
41078;BME280;26823;42.662;23.352;2023-04-29T03:53:10;94858.44;;;4.80;80.74
41078;BME280;26823;42.662;23.352;2023-04-29T03:55:36;94856.28;;;4.94;80.36
41078;BME280;26823;42.662;23.352;2023-04-29T03:58:02;94858.75;;;4.66;80.29
41078;BME280;26823;42.662;23.352;2023-04-29T04:00:29;94848.50;;;4.63;80.21
41078;BME280;26823;42.662;23.352;2023-04-29T04:03:01;94847.38;;;4.59;78.72
41078;BME280;26823;42.662;23.352;2023-04-29T04:05:27;94844.16;;;4.74;78.27
41078;BME280;26823;42.662;23.352;2023-04-29T04:07:53;94819.25;;;4.45;79.10
41078;BME280;26823;42.662;23.352;2023-04-29T04:10:18;94846.75;;;4.69;78.73
41078;BME280;26823;42.662;23.352;2023-04-29T04:12:44;94852.94;;;4.86;78.62
41078;BME280;26823;42.662;23.352;2023-04-29T04:15:11;94870.16;;;4.90;79.27
41078;BME280;26823;42.662;23.352;2023-04-29T04:17:36;94864.72;;;4.85;79.11
41078;BME280;26823;42.662;23.352;2023-04-29T04:20:02;94862.63;;;5.04;78.76
41078;BME280;26823;42.662;23.352;2023-04-29T04:22:28;94850.75;;;5.34;78.33
41078;BME280;26823;42.662;23.352;2023-04-29T04:24:54;94853.44;;;5.34;77.21
41078;BME280;26823;42.662;23.352;2023-04-29T04:27:20;94850.28;;;5.37;76.86
41078;BME280;26823;42.662;23.352;2023-04-29T04:29:45;94857.00;;;5.23;77.80
41078;BME280;26823;42.662;23.352;2023-04-29T04:32:11;94833.22;;;5.44;77.10
41078;BME280;26823;42.662;23.352;2023-04-29T04:34:36;94848.03;;;5.68;76.86
41078;BME280;26823;42.662;23.352;2023-04-29T04:37:04;94842.28;;;5.60;74.89
41078;BME280;26823;42.662;23.352;2023-04-29T04:39:30;94837.09;;;5.53;75.38
41078;BME280;26823;42.662;23.352;2023-04-29T04:41:55;94850.66;;;5.80;72.67
41078;BME280;26823;42.662;23.352;2023-04-29T04:44:21;94842.66;;;5.85;72.49
41078;BME280;26823;42.662;23.352;2023-04-29T04:46:46;94846.44;;;6.07;71.63
41078;BME280;26823;42.662;23.352;2023-04-29T04:49:12;94857.38;;;6.22;72.75
41078;BME280;26823;42.662;23.352;2023-04-29T04:51:37;94862.88;;;6.32;73.21
41078;BME280;26823;42.662;23.352;2023-04-29T04:54:03;94862.94;;;6.38;73.10
41078;BME280;26823;42.662;23.352;2023-04-29T04:56:28;94864.06;;;6.42;72.90
41078;BME280;26823;42.662;23.352;2023-04-29T04:58:53;94865.47;;;6.49;73.12
41078;BME280;26823;42.662;23.352;2023-04-29T05:01:19;94859.22;;;6.66;71.65
41078;BME280;26823;42.662;23.352;2023-04-29T05:03:45;94843.50;;;6.80;70.63
41078;BME280;26823;42.662;23.352;2023-04-29T05:06:10;94847.56;;;6.55;70.80
41078;BME280;26823;42.662;23.352;2023-04-29T05:08:36;94842.44;;;6.81;69.68
41078;BME280;26823;42.662;23.352;2023-04-29T05:11:01;94840.31;;;6.83;69.66
41078;BME280;26823;42.662;23.352;2023-04-29T05:13:26;94842.59;;;6.69;68.59
41078;BME280;26823;42.662;23.352;2023-04-29T05:15:52;94846.53;;;6.89;66.88
41078;BME280;26823;42.662;23.352;2023-04-29T05:18:18;94839.22;;;7.11;65.00
41078;BME280;26823;42.662;23.352;2023-04-29T05:20:43;94818.34;;;6.91;65.24
41078;BME280;26823;42.662;23.352;2023-04-29T05:23:08;94823.16;;;6.62;66.19
41078;BME280;26823;42.662;23.352;2023-04-29T05:25:34;94809.69;;;6.57;66.80
41078;BME280;26823;42.662;23.352;2023-04-29T05:28:01;94811.41;;;6.18;66.54
41078;BME280;26823;42.662;23.352;2023-04-29T05:30:28;94811.59;;;6.34;66.55
41078;BME280;26823;42.662;23.352;2023-04-29T05:32:54;94816.06;;;6.78;66.20
41078;BME280;26823;42.662;23.352;2023-04-29T05:35:20;94813.38;;;7.10;65.08
41078;BME280;26823;42.662;23.352;2023-04-29T05:37:46;94802.69;;;7.21;63.18
41078;BME280;26823;42.662;23.352;2023-04-29T05:40:11;94817.81;;;7.64;62.86
41078;BME280;26823;42.662;23.352;2023-04-29T05:42:37;94825.63;;;7.66;63.17
41078;BME280;26823;42.662;23.352;2023-04-29T05:45:02;94820.63;;;7.85;62.62
41078;BME280;26823;42.662;23.352;2023-04-29T05:47:28;94811.78;;;7.90;61.79
41078;BME280;26823;42.662;23.352;2023-04-29T05:49:53;94809.13;;;7.52;62.81
41078;BME280;26823;42.662;23.352;2023-04-29T05:52:18;94810.63;;;7.75;61.93
41078;BME280;26823;42.662;23.352;2023-04-29T05:54:44;94813.47;;;8.06;61.35
41078;BME280;26823;42.662;23.352;2023-04-29T05:57:09;94824.47;;;7.94;63.33
41078;BME280;26823;42.662;23.352;2023-04-29T05:59:34;94824.94;;;7.86;63.37
41078;BME280;26823;42.662;23.352;2023-04-29T06:02:00;94831.84;;;8.20;62.45
41078;BME280;26823;42.662;23.352;2023-04-29T06:04:26;94828.22;;;8.46;60.77
41078;BME280;26823;42.662;23.352;2023-04-29T06:06:52;94835.72;;;8.44;61.03
41078;BME280;26823;42.662;23.352;2023-04-29T06:09:19;94836.09;;;8.79;60.54
41078;BME280;26823;42.662;23.352;2023-04-29T06:11:45;94819.97;;;9.05;59.72
41078;BME280;26823;42.662;23.352;2023-04-29T06:14:11;94827.00;;;9.37;58.56
41078;BME280;26823;42.662;23.352;2023-04-29T06:16:36;94820.78;;;9.41;57.45
41078;BME280;26823;42.662;23.352;2023-04-29T06:19:02;94820.50;;;9.48;56.50
41078;BME280;26823;42.662;23.352;2023-04-29T06:21:27;94816.16;;;9.83;55.44
41078;BME280;26823;42.662;23.352;2023-04-29T06:23:53;94822.50;;;10.39;52.82
41078;BME280;26823;42.662;23.352;2023-04-29T06:26:19;94816.78;;;10.46;52.30
41078;BME280;26823;42.662;23.352;2023-04-29T06:28:48;94802.00;;;10.07;52.48
41078;BME280;26823;42.662;23.352;2023-04-29T06:31:14;94827.38;;;10.26;51.99
41078;BME280;26823;42.662;23.352;2023-04-29T06:33:40;94821.00;;;10.67;51.97
41078;BME280;26823;42.662;23.352;2023-04-29T06:36:05;94823.47;;;10.58;54.13
41078;BME280;26823;42.662;23.352;2023-04-29T06:38:30;94825.59;;;10.67;52.53
41078;BME280;26823;42.662;23.352;2023-04-29T06:40:56;94830.31;;;10.35;51.68
41078;BME280;26823;42.662;23.352;2023-04-29T06:43:25;94824.13;;;10.24;53.01
41078;BME280;26823;42.662;23.352;2023-04-29T06:45:51;94810.53;;;10.50;52.06
41078;BME280;26823;42.662;23.352;2023-04-29T06:48:16;94823.16;;;10.65;51.64
41078;BME280;26823;42.662;23.352;2023-04-29T06:50:52;94811.34;;;10.51;51.36
41078;BME280;26823;42.662;23.352;2023-04-29T06:53:18;94827.31;;;10.42;52.10
41078;BME280;26823;42.662;23.352;2023-04-29T06:55:43;94819.50;;;10.35;52.72
41078;BME280;26823;42.662;23.352;2023-04-29T06:58:11;94820.25;;;10.51;52.34
41078;BME280;26823;42.662;23.352;2023-04-29T07:00:37;94809.78;;;10.29;53.44
41078;BME280;26823;42.662;23.352;2023-04-29T07:03:02;94806.63;;;10.01;53.21
41078;BME280;26823;42.662;23.352;2023-04-29T07:05:28;94811.00;;;9.87;54.23
41078;BME280;26823;42.662;23.352;2023-04-29T07:07:53;94807.41;;;10.17;53.01
41078;BME280;26823;42.662;23.352;2023-04-29T07:10:19;94815.44;;;10.33;53.05
41078;BME280;26823;42.662;23.352;2023-04-29T07:12:44;94810.78;;;10.49;53.76
41078;BME280;26823;42.662;23.352;2023-04-29T07:15:09;94807.84;;;10.40;53.47
41078;BME280;26823;42.662;23.352;2023-04-29T07:17:35;94800.28;;;10.42;53.97
41078;BME280;26823;42.662;23.352;2023-04-29T07:20:01;94797.84;;;10.46;52.14
41078;BME280;26823;42.662;23.352;2023-04-29T07:22:26;94814.63;;;10.32;53.40
41078;BME280;26823;42.662;23.352;2023-04-29T07:24:53;94807.22;;;10.58;52.67
41078;BME280;26823;42.662;23.352;2023-04-29T07:27:19;94805.13;;;10.50;52.89
41078;BME280;26823;42.662;23.352;2023-04-29T07:29:44;94804.03;;;10.96;52.68
41078;BME280;26823;42.662;23.352;2023-04-29T07:32:10;94798.97;;;10.89;51.67
41078;BME280;26823;42.662;23.352;2023-04-29T07:34:35;94809.47;;;11.31;49.57
41078;BME280;26823;42.662;23.352;2023-04-29T07:37:01;94804.69;;;11.22;49.25
41078;BME280;26823;42.662;23.352;2023-04-29T07:39:26;94799.72;;;11.30;49.14
41078;BME280;26823;42.662;23.352;2023-04-29T07:41:53;94798.28;;;11.72;49.99
41078;BME280;26823;42.662;23.352;2023-04-29T07:44:18;94804.97;;;12.09;49.30
41078;BME280;26823;42.662;23.352;2023-04-29T07:46:44;94797.56;;;12.63;47.91
41078;BME280;26823;42.662;23.352;2023-04-29T07:49:16;94806.28;;;13.17;46.60
41078;BME280;26823;42.662;23.352;2023-04-29T07:51:42;94801.41;;;14.27;42.89
41078;BME280;26823;42.662;23.352;2023-04-29T07:54:08;94802.50;;;13.98;40.99
41078;BME280;26823;42.662;23.352;2023-04-29T07:56:34;94785.25;;;13.75;40.80
41078;BME280;26823;42.662;23.352;2023-04-29T07:58:59;94798.19;;;13.50;41.83
41078;BME280;26823;42.662;23.352;2023-04-29T08:01:28;94783.97;;;13.86;41.51
41078;BME280;26823;42.662;23.352;2023-04-29T08:03:54;94787.00;;;13.85;43.19
41078;BME280;26823;42.662;23.352;2023-04-29T08:06:19;94779.72;;;13.80;41.13
41078;BME280;26823;42.662;23.352;2023-04-29T08:08:47;94791.34;;;14.28;42.68
41078;BME280;26823;42.662;23.352;2023-04-29T08:11:19;94795.06;;;14.32;41.93
41078;BME280;26823;42.662;23.352;2023-04-29T08:13:46;94791.47;;;14.09;40.13
41078;BME280;26823;42.662;23.352;2023-04-29T08:16:12;94789.84;;;14.22;39.92
41078;BME280;26823;42.662;23.352;2023-04-29T08:18:38;94786.75;;;14.93;37.66
41078;BME280;26823;42.662;23.352;2023-04-29T08:21:03;94767.16;;;15.50;38.33
41078;BME280;26823;42.662;23.352;2023-04-29T08:23:29;94785.44;;;15.27;39.20
41078;BME280;26823;42.662;23.352;2023-04-29T08:25:54;94779.13;;;15.18;38.67
41078;BME280;26823;42.662;23.352;2023-04-29T08:28:23;94765.75;;;14.71;37.14
41078;BME280;26823;42.662;23.352;2023-04-29T08:30:49;94772.50;;;14.45;38.30
41078;BME280;26823;42.662;23.352;2023-04-29T08:33:15;94777.84;;;14.64;38.73
41078;BME280;26823;42.662;23.352;2023-04-29T08:35:41;94767.16;;;14.40;39.46
41078;BME280;26823;42.662;23.352;2023-04-29T08:38:07;94768.28;;;14.67;38.48
41078;BME280;26823;42.662;23.352;2023-04-29T08:40:43;94762.59;;;15.14;37.23
41078;BME280;26823;42.662;23.352;2023-04-29T08:43:10;94779.22;;;15.35;36.30
41078;BME280;26823;42.662;23.352;2023-04-29T08:45:36;94778.22;;;15.76;34.00
41078;BME280;26823;42.662;23.352;2023-04-29T08:48:04;94763.56;;;15.63;34.46
41078;BME280;26823;42.662;23.352;2023-04-29T08:50:33;94750.31;;;15.48;34.29
41078;BME280;26823;42.662;23.352;2023-04-29T08:53:01;94754.13;;;15.92;34.24
41078;BME280;26823;42.662;23.352;2023-04-29T08:55:26;94759.94;;;16.08;34.88
41078;BME280;26823;42.662;23.352;2023-04-29T08:57:53;94760.09;;;16.03;34.30
41078;BME280;26823;42.662;23.352;2023-04-29T09:00:19;94753.56;;;15.81;34.81
41078;BME280;26823;42.662;23.352;2023-04-29T09:02:52;94750.25;;;15.62;33.01
41078;BME280;26823;42.662;23.352;2023-04-29T09:05:18;94746.50;;;16.70;32.59
41078;BME280;26823;42.662;23.352;2023-04-29T09:07:44;94750.06;;;16.97;31.31
41078;BME280;26823;42.662;23.352;2023-04-29T09:10:11;94751.66;;;17.24;30.99
41078;BME280;26823;42.662;23.352;2023-04-29T09:12:37;94749.53;;;17.73;29.21
41078;BME280;26823;42.662;23.352;2023-04-29T09:15:03;94746.31;;;17.63;29.80
41078;BME280;26823;42.662;23.352;2023-04-29T09:17:48;94751.34;;;17.34;30.35
41078;BME280;26823;42.662;23.352;2023-04-29T09:22:52;94744.44;;;16.93;30.86
41078;BME280;26823;42.662;23.352;2023-04-29T09:25:18;94732.25;;;17.17;30.23
41078;BME280;26823;42.662;23.352;2023-04-29T09:27:43;94724.81;;;16.65;30.94
41078;BME280;26823;42.662;23.352;2023-04-29T09:30:09;94723.72;;;17.18;30.45
41078;BME280;26823;42.662;23.352;2023-04-29T09:32:37;94730.06;;;17.66;29.93
41078;BME280;26823;42.662;23.352;2023-04-29T09:35:22;94723.56;;;17.06;30.88
41078;BME280;26823;42.662;23.352;2023-04-29T09:37:49;94723.22;;;17.07;35.28
41078;BME280;26823;42.662;23.352;2023-04-29T09:40:30;94719.19;;;18.35;32.24
41078;BME280;26823;42.662;23.352;2023-04-29T09:42:57;94709.28;;;18.21;31.52
41078;BME280;26823;42.662;23.352;2023-04-29T09:45:40;94710.28;;;18.17;34.14
41078;BME280;26823;42.662;23.352;2023-04-29T09:48:07;94709.00;;;17.58;32.10
41078;BME280;26823;42.662;23.352;2023-04-29T09:50:33;94690.97;;;17.66;31.46
41078;BME280;26823;42.662;23.352;2023-04-29T09:52:59;94711.31;;;17.30;31.07
41078;BME280;26823;42.662;23.352;2023-04-29T09:55:24;94701.19;;;17.12;34.18
41078;BME280;26823;42.662;23.352;2023-04-29T09:57:51;94689.47;;;17.03;32.43
41078;BME280;26823;42.662;23.352;2023-04-29T10:00:17;94683.03;;;16.73;31.79
41078;BME280;26823;42.662;23.352;2023-04-29T10:02:45;94683.50;;;17.19;32.32
41078;BME280;26823;42.662;23.352;2023-04-29T10:05:13;94686.44;;;17.79;31.80
41078;BME280;26823;42.662;23.352;2023-04-29T10:07:39;94684.22;;;18.11;30.88
41078;BME280;26823;42.662;23.352;2023-04-29T10:10:06;94678.66;;;17.98;31.78
41078;BME280;26823;42.662;23.352;2023-04-29T10:12:34;94674.38;;;18.18;30.28
41078;BME280;26823;42.662;23.352;2023-04-29T10:15:43;94681.38;;;19.55;32.12
41078;BME280;26823;42.662;23.352;2023-04-29T10:17:53;94672.38;;;18.79;29.65
41078;BME280;26823;42.662;23.352;2023-04-29T10:20:23;94657.78;;;17.85;28.61
41078;BME280;26823;42.662;23.352;2023-04-29T10:22:50;94659.69;;;17.37;30.05
41078;BME280;26823;42.662;23.352;2023-04-29T10:25:18;94671.25;;;18.29;29.02
41078;BME280;26823;42.662;23.352;2023-04-29T10:27:44;94660.38;;;18.11;30.67
41078;BME280;26823;42.662;23.352;2023-04-29T10:30:15;94635.81;;;18.02;30.31
41078;BME280;26823;42.662;23.352;2023-04-29T10:32:46;94635.41;;;17.83;30.74
41078;BME280;26823;42.662;23.352;2023-04-29T10:35:13;94655.28;;;17.62;32.27
41078;BME280;26823;42.662;23.352;2023-04-29T10:37:40;94648.56;;;18.49;29.22
41078;BME280;26823;42.662;23.352;2023-04-29T10:40:13;94652.91;;;18.50;27.42
41078;BME280;26823;42.662;23.352;2023-04-29T10:42:49;94662.97;;;16.86;29.34
41078;BME280;26823;42.662;23.352;2023-04-29T10:45:29;94655.50;;;17.39;30.01
41078;BME280;26823;42.662;23.352;2023-04-29T10:53:18;94650.25;;;18.63;31.08
41078;BME280;26823;42.662;23.352;2023-04-29T10:55:55;94648.88;;;19.11;29.25
41078;BME280;26823;42.662;23.352;2023-04-29T10:58:33;94651.84;;;19.06;28.49
41078;BME280;26823;42.662;23.352;2023-04-29T11:00:59;94646.66;;;19.26;32.68
41078;BME280;26823;42.662;23.352;2023-04-29T11:06:40;94642.16;;;19.54;28.20
41078;BME280;26823;42.662;23.352;2023-04-29T11:14:08;94634.16;;;18.10;33.28
41078;BME280;26823;42.662;23.352;2023-04-29T11:16:35;94635.47;;;18.55;31.06
41078;BME280;26823;42.662;23.352;2023-04-29T11:19:08;94631.06;;;18.63;28.38
41078;BME280;26823;42.662;23.352;2023-04-29T11:21:35;94626.59;;;18.58;29.82
41078;BME280;26823;42.662;23.352;2023-04-29T11:24:02;94629.88;;;18.72;31.82
41078;BME280;26823;42.662;23.352;2023-04-29T11:26:33;94635.06;;;18.86;28.50
41078;BME280;26823;42.662;23.352;2023-04-29T11:28:59;94638.16;;;18.42;28.40
41078;BME280;26823;42.662;23.352;2023-04-29T11:31:31;94636.63;;;18.54;33.95
41078;BME280;26823;42.662;23.352;2023-04-29T11:33:57;94637.09;;;18.98;29.60
41078;BME280;26823;42.662;23.352;2023-04-29T11:36:23;94635.13;;;18.35;27.51
41078;BME280;26823;42.662;23.352;2023-04-29T11:38:48;94608.44;;;18.02;30.04
41078;BME280;26823;42.662;23.352;2023-04-29T11:41:14;94623.03;;;18.15;34.48
41078;BME280;26823;42.662;23.352;2023-04-29T11:43:40;94628.84;;;18.35;31.54
41078;BME280;26823;42.662;23.352;2023-04-29T11:46:13;94617.38;;;18.20;29.74
41078;BME280;26823;42.662;23.352;2023-04-29T11:48:46;94631.19;;;17.94;27.53
41078;BME280;26823;42.662;23.352;2023-04-29T11:51:13;94624.88;;;17.64;28.57
41078;BME280;26823;42.662;23.352;2023-04-29T11:53:39;94628.25;;;17.60;30.21
41078;BME280;26823;42.662;23.352;2023-04-29T11:56:05;94621.00;;;17.65;29.28
41078;BME280;26823;42.662;23.352;2023-04-29T11:58:30;94633.31;;;17.80;30.14
41078;BME280;26823;42.662;23.352;2023-04-29T12:00:57;94623.00;;;17.85;30.63
41078;BME280;26823;42.662;23.352;2023-04-29T12:03:23;94631.94;;;18.03;33.80
41078;BME280;26823;42.662;23.352;2023-04-29T12:05:53;94616.22;;;17.91;29.83
41078;BME280;26823;42.662;23.352;2023-04-29T12:08:28;94587.94;;;17.49;30.57
41078;BME280;26823;42.662;23.352;2023-04-29T12:10:56;94595.88;;;17.24;31.08
41078;BME280;26823;42.662;23.352;2023-04-29T12:13:23;94629.63;;;17.37;32.21
41078;BME280;26823;42.662;23.352;2023-04-29T12:15:49;94623.88;;;17.30;31.07
41078;BME280;26823;42.662;23.352;2023-04-29T12:18:16;94615.47;;;17.43;31.97
41078;BME280;26823;42.662;23.352;2023-04-29T12:20:43;94616.81;;;17.20;32.16
41078;BME280;26823;42.662;23.352;2023-04-29T12:23:13;94625.19;;;17.15;33.49
41078;BME280;26823;42.662;23.352;2023-04-29T12:25:40;94618.63;;;16.98;32.37
41078;BME280;26823;42.662;23.352;2023-04-29T12:28:12;94616.06;;;16.93;32.16
41078;BME280;26823;42.662;23.352;2023-04-29T12:30:38;94602.22;;;16.72;33.47
41078;BME280;26823;42.662;23.352;2023-04-29T12:33:03;94602.06;;;16.86;32.90
41078;BME280;26823;42.662;23.352;2023-04-29T12:35:29;94604.00;;;16.76;33.08
41078;BME280;26823;42.662;23.352;2023-04-29T12:37:57;94602.72;;;16.83;33.27
41078;BME280;26823;42.662;23.352;2023-04-29T12:40:23;94585.81;;;16.89;34.02
41078;BME280;26823;42.662;23.352;2023-04-29T12:42:48;94597.75;;;16.76;33.51
41078;BME280;26823;42.662;23.352;2023-04-29T12:45:31;94578.94;;;16.74;34.33
41078;BME280;26823;42.662;23.352;2023-04-29T12:47:57;94587.94;;;16.75;34.53
41078;BME280;26823;42.662;23.352;2023-04-29T12:50:30;94596.16;;;16.92;32.43
41078;BME280;26823;42.662;23.352;2023-04-29T12:52:57;94601.44;;;16.98;34.13
41078;BME280;26823;42.662;23.352;2023-04-29T12:55:23;94592.03;;;17.25;34.61
41078;BME280;26823;42.662;23.352;2023-04-29T12:57:48;94591.50;;;17.40;33.10
41078;BME280;26823;42.662;23.352;2023-04-29T13:00:14;94584.72;;;17.47;32.91
41078;BME280;26823;42.662;23.352;2023-04-29T13:02:40;94585.63;;;17.21;33.42
41078;BME280;26823;42.662;23.352;2023-04-29T13:05:06;94586.50;;;17.42;34.89
41078;BME280;26823;42.662;23.352;2023-04-29T13:07:31;94585.81;;;17.54;34.58
41078;BME280;26823;42.662;23.352;2023-04-29T13:09:57;94595.72;;;17.68;35.08
41078;BME280;26823;42.662;23.352;2023-04-29T13:12:22;94595.88;;;17.71;34.25
41078;BME280;26823;42.662;23.352;2023-04-29T13:14:47;94565.88;;;17.54;35.14
41078;BME280;26823;42.662;23.352;2023-04-29T13:17:13;94590.44;;;18.01;34.55
41078;BME280;26823;42.662;23.352;2023-04-29T13:19:39;94591.53;;;18.09;34.07
41078;BME280;26823;42.662;23.352;2023-04-29T13:22:04;94589.66;;;18.22;35.42
41078;BME280;26823;42.662;23.352;2023-04-29T13:24:30;94585.38;;;18.12;35.06